sensor_id;sensor_type;location;lat;lon;timestamp;pressure;altitude;pressure_sealevel;temperature
7389;BMP180;3735;50.136;11.062;2023-05-29T00:01:25;98399.00;;;11.00
7389;BMP180;3735;50.136;11.062;2023-05-29T00:03:51;98389.00;;;11.00
7389;BMP180;3735;50.136;11.062;2023-05-29T00:06:19;98391.00;;;11.00
7389;BMP180;3735;50.136;11.062;2023-05-29T00:08:45;98388.00;;;10.90
7389;BMP180;3735;50.136;11.062;2023-05-29T00:11:11;98389.00;;;10.90
7389;BMP180;3735;50.136;11.062;2023-05-29T00:13:37;98392.00;;;10.80
7389;BMP180;3735;50.136;11.062;2023-05-29T00:16:03;98390.00;;;10.80
7389;BMP180;3735;50.136;11.062;2023-05-29T00:18:30;98393.00;;;10.70
7389;BMP180;3735;50.136;11.062;2023-05-29T00:20:56;98385.00;;;10.60
7389;BMP180;3735;50.136;11.062;2023-05-29T00:23:22;98381.00;;;10.50
7389;BMP180;3735;50.136;11.062;2023-05-29T00:25:47;98378.00;;;10.50
7389;BMP180;3735;50.136;11.062;2023-05-29T00:28:13;98386.00;;;10.60
7389;BMP180;3735;50.136;11.062;2023-05-29T00:30:40;98392.00;;;10.60
7389;BMP180;3735;50.136;11.062;2023-05-29T00:33:05;98391.00;;;10.50
7389;BMP180;3735;50.136;11.062;2023-05-29T00:35:31;98395.00;;;10.50
7389;BMP180;3735;50.136;11.062;2023-05-29T00:37:58;98393.00;;;10.40
7389;BMP180;3735;50.136;11.062;2023-05-29T00:40:24;98387.00;;;10.30
7389;BMP180;3735;50.136;11.062;2023-05-29T00:42:50;98371.00;;;10.30
7389;BMP180;3735;50.136;11.062;2023-05-29T00:45:16;98376.00;;;10.30
7389;BMP180;3735;50.136;11.062;2023-05-29T00:47:42;98387.00;;;10.30
7389;BMP180;3735;50.136;11.062;2023-05-29T00:50:10;98381.00;;;10.30
7389;BMP180;3735;50.136;11.062;2023-05-29T00:52:37;98387.00;;;10.40
7389;BMP180;3735;50.136;11.062;2023-05-29T00:55:04;98385.00;;;10.40
7389;BMP180;3735;50.136;11.062;2023-05-29T00:57:32;98382.00;;;10.40
7389;BMP180;3735;50.136;11.062;2023-05-29T01:00:00;98394.00;;;10.40
7389;BMP180;3735;50.136;11.062;2023-05-29T01:02:28;98374.00;;;10.30
7389;BMP180;3735;50.136;11.062;2023-05-29T01:04:56;98379.00;;;10.20
7389;BMP180;3735;50.136;11.062;2023-05-29T01:07:23;98389.00;;;10.10
7389;BMP180;3735;50.136;11.062;2023-05-29T01:09:48;98397.00;;;10.00
7389;BMP180;3735;50.136;11.062;2023-05-29T01:12:47;98396.00;;;9.90
7389;BMP180;3735;50.136;11.062;2023-05-29T01:15:58;98394.00;;;9.80
7389;BMP180;3735;50.136;11.062;2023-05-29T01:19:04;98391.00;;;9.80
7389;BMP180;3735;50.136;11.062;2023-05-29T01:24:49;98404.00;;;9.60
7389;BMP180;3735;50.136;11.062;2023-05-29T01:27:19;98397.00;;;9.50
7389;BMP180;3735;50.136;11.062;2023-05-29T01:29:47;98381.00;;;9.50
7389;BMP180;3735;50.136;11.062;2023-05-29T01:32:14;98406.00;;;9.60
7389;BMP180;3735;50.136;11.062;2023-05-29T01:34:40;98394.00;;;9.50
7389;BMP180;3735;50.136;11.062;2023-05-29T01:37:06;98396.00;;;9.50
7389;BMP180;3735;50.136;11.062;2023-05-29T01:39:33;98401.00;;;9.40
7389;BMP180;3735;50.136;11.062;2023-05-29T01:42:01;98392.00;;;9.30
7389;BMP180;3735;50.136;11.062;2023-05-29T01:44:29;98388.00;;;9.20
7389;BMP180;3735;50.136;11.062;2023-05-29T01:46:55;98395.00;;;9.20
7389;BMP180;3735;50.136;11.062;2023-05-29T01:49:24;98383.00;;;9.20
7389;BMP180;3735;50.136;11.062;2023-05-29T01:51:50;98394.00;;;9.30
7389;BMP180;3735;50.136;11.062;2023-05-29T01:54:16;98391.00;;;9.40
7389;BMP180;3735;50.136;11.062;2023-05-29T01:56:42;98379.00;;;9.50
7389;BMP180;3735;50.136;11.062;2023-05-29T01:59:10;98380.00;;;9.40
7389;BMP180;3735;50.136;11.062;2023-05-29T02:01:39;98380.00;;;9.30
7389;BMP180;3735;50.136;11.062;2023-05-29T02:04:05;98381.00;;;9.30
7389;BMP180;3735;50.136;11.062;2023-05-29T02:06:31;98381.00;;;9.30
7389;BMP180;3735;50.136;11.062;2023-05-29T02:08:58;98375.00;;;9.40
7389;BMP180;3735;50.136;11.062;2023-05-29T02:11:24;98348.00;;;9.40
7389;BMP180;3735;50.136;11.062;2023-05-29T02:13:51;98379.00;;;9.30
7389;BMP180;3735;50.136;11.062;2023-05-29T02:16:18;98373.00;;;9.20
7389;BMP180;3735;50.136;11.062;2023-05-29T02:18:46;98385.00;;;9.10
7389;BMP180;3735;50.136;11.062;2023-05-29T02:21:13;98378.00;;;9.00
7389;BMP180;3735;50.136;11.062;2023-05-29T02:23:38;98379.00;;;9.00
7389;BMP180;3735;50.136;11.062;2023-05-29T02:26:05;98373.00;;;8.90
7389;BMP180;3735;50.136;11.062;2023-05-29T02:28:30;98366.00;;;8.80
7389;BMP180;3735;50.136;11.062;2023-05-29T02:30:56;98372.00;;;8.70
7389;BMP180;3735;50.136;11.062;2023-05-29T02:33:22;98365.00;;;8.60
7389;BMP180;3735;50.136;11.062;2023-05-29T02:35:48;98370.00;;;8.50
7389;BMP180;3735;50.136;11.062;2023-05-29T02:38:14;98366.00;;;8.50
7389;BMP180;3735;50.136;11.062;2023-05-29T02:40:39;98358.00;;;8.50
7389;BMP180;3735;50.136;11.062;2023-05-29T02:43:06;98370.00;;;8.40
7389;BMP180;3735;50.136;11.062;2023-05-29T02:45:32;98371.00;;;8.50
7389;BMP180;3735;50.136;11.062;2023-05-29T02:47:58;98369.00;;;8.50
7389;BMP180;3735;50.136;11.062;2023-05-29T02:50:24;98380.00;;;8.50
7389;BMP180;3735;50.136;11.062;2023-05-29T02:52:50;98372.00;;;8.50
7389;BMP180;3735;50.136;11.062;2023-05-29T02:55:16;98362.00;;;8.50
7389;BMP180;3735;50.136;11.062;2023-05-29T02:57:42;98370.00;;;8.50
7389;BMP180;3735;50.136;11.062;2023-05-29T03:00:08;98376.00;;;8.40
7389;BMP180;3735;50.136;11.062;2023-05-29T03:02:35;98370.00;;;8.30
7389;BMP180;3735;50.136;11.062;2023-05-29T03:05:01;98369.00;;;8.30
7389;BMP180;3735;50.136;11.062;2023-05-29T03:07:27;98370.00;;;8.30
7389;BMP180;3735;50.136;11.062;2023-05-29T03:09:54;98367.00;;;8.30
7389;BMP180;3735;50.136;11.062;2023-05-29T03:12:20;98371.00;;;8.30
7389;BMP180;3735;50.136;11.062;2023-05-29T03:14:47;98370.00;;;8.40
7389;BMP180;3735;50.136;11.062;2023-05-29T03:17:12;98372.00;;;8.40
7389;BMP180;3735;50.136;11.062;2023-05-29T03:19:38;98364.00;;;8.40
7389;BMP180;3735;50.136;11.062;2023-05-29T03:22:04;98370.00;;;8.30
7389;BMP180;3735;50.136;11.062;2023-05-29T03:24:30;98376.00;;;8.30
7389;BMP180;3735;50.136;11.062;2023-05-29T03:26:55;98375.00;;;8.30
7389;BMP180;3735;50.136;11.062;2023-05-29T03:29:21;98371.00;;;8.30
7389;BMP180;3735;50.136;11.062;2023-05-29T03:31:47;98381.00;;;8.30
7389;BMP180;3735;50.136;11.062;2023-05-29T03:34:13;98372.00;;;8.20
7389;BMP180;3735;50.136;11.062;2023-05-29T03:36:39;98375.00;;;8.30
7389;BMP180;3735;50.136;11.062;2023-05-29T03:39:05;98376.00;;;8.30
7389;BMP180;3735;50.136;11.062;2023-05-29T03:41:32;98352.00;;;8.30
7389;BMP180;3735;50.136;11.062;2023-05-29T03:43:58;98381.00;;;8.40
7389;BMP180;3735;50.136;11.062;2023-05-29T03:46:24;98384.00;;;8.50
7389;BMP180;3735;50.136;11.062;2023-05-29T03:48:49;98376.00;;;8.50
7389;BMP180;3735;50.136;11.062;2023-05-29T03:51:15;98387.00;;;8.50
7389;BMP180;3735;50.136;11.062;2023-05-29T03:53:41;98379.00;;;8.60
7389;BMP180;3735;50.136;11.062;2023-05-29T03:56:07;98388.00;;;8.60
7389;BMP180;3735;50.136;11.062;2023-05-29T03:58:32;98384.00;;;8.70
7389;BMP180;3735;50.136;11.062;2023-05-29T04:00:58;98393.00;;;8.80
7389;BMP180;3735;50.136;11.062;2023-05-29T04:03:24;98393.00;;;8.80
7389;BMP180;3735;50.136;11.062;2023-05-29T04:05:50;98396.00;;;8.90
7389;BMP180;3735;50.136;11.062;2023-05-29T04:08:15;98402.00;;;9.10
7389;BMP180;3735;50.136;11.062;2023-05-29T04:10:41;98391.00;;;9.20
7389;BMP180;3735;50.136;11.062;2023-05-29T04:13:07;98403.00;;;9.20
7389;BMP180;3735;50.136;11.062;2023-05-29T04:15:33;98403.00;;;9.30
7389;BMP180;3735;50.136;11.062;2023-05-29T04:17:59;98401.00;;;9.30
7389;BMP180;3735;50.136;11.062;2023-05-29T04:20:25;98411.00;;;9.40
7389;BMP180;3735;50.136;11.062;2023-05-29T04:22:51;98414.00;;;9.50
7389;BMP180;3735;50.136;11.062;2023-05-29T04:25:17;98416.00;;;9.70
7389;BMP180;3735;50.136;11.062;2023-05-29T04:27:46;98429.00;;;10.10
7389;BMP180;3735;50.136;11.062;2023-05-29T04:30:15;98424.00;;;10.70
7389;BMP180;3735;50.136;11.062;2023-05-29T04:32:44;98421.00;;;11.60
7389;BMP180;3735;50.136;11.062;2023-05-29T04:35:10;98429.00;;;12.10
7389;BMP180;3735;50.136;11.062;2023-05-29T04:37:36;98424.00;;;12.50
7389;BMP180;3735;50.136;11.062;2023-05-29T04:40:07;98416.00;;;12.90
7389;BMP180;3735;50.136;11.062;2023-05-29T04:42:37;98408.00;;;14.10
7389;BMP180;3735;50.136;11.062;2023-05-29T04:45:05;98406.00;;;15.20
7389;BMP180;3735;50.136;11.062;2023-05-29T04:47:31;98404.00;;;15.90
7389;BMP180;3735;50.136;11.062;2023-05-29T04:50:00;98414.00;;;16.30
7389;BMP180;3735;50.136;11.062;2023-05-29T04:52:26;98412.00;;;17.10
7389;BMP180;3735;50.136;11.062;2023-05-29T04:54:54;98412.00;;;16.80
7389;BMP180;3735;50.136;11.062;2023-05-29T04:57:20;98412.00;;;17.50
7389;BMP180;3735;50.136;11.062;2023-05-29T04:59:46;98420.00;;;18.00
7389;BMP180;3735;50.136;11.062;2023-05-29T05:02:11;98421.00;;;18.80
7389;BMP180;3735;50.136;11.062;2023-05-29T05:04:37;98408.00;;;19.10
7389;BMP180;3735;50.136;11.062;2023-05-29T05:07:05;98414.00;;;19.30
7389;BMP180;3735;50.136;11.062;2023-05-29T05:09:31;98420.00;;;19.60
7389;BMP180;3735;50.136;11.062;2023-05-29T05:11:57;98423.00;;;19.90
7389;BMP180;3735;50.136;11.062;2023-05-29T05:14:23;98423.00;;;20.10
7389;BMP180;3735;50.136;11.062;2023-05-29T05:16:49;98425.00;;;20.80
7389;BMP180;3735;50.136;11.062;2023-05-29T05:19:15;98415.00;;;21.20
7389;BMP180;3735;50.136;11.062;2023-05-29T05:21:41;98412.00;;;21.60
7389;BMP180;3735;50.136;11.062;2023-05-29T05:24:06;98415.00;;;21.80
7389;BMP180;3735;50.136;11.062;2023-05-29T05:26:32;98424.00;;;21.80
7389;BMP180;3735;50.136;11.062;2023-05-29T05:28:58;98430.00;;;21.00
7389;BMP180;3735;50.136;11.062;2023-05-29T05:31:24;98439.00;;;20.50
7389;BMP180;3735;50.136;11.062;2023-05-29T05:33:50;98441.00;;;20.60
7389;BMP180;3735;50.136;11.062;2023-05-29T05:36:16;98438.00;;;21.00
7389;BMP180;3735;50.136;11.062;2023-05-29T05:38:41;98433.00;;;21.60
7389;BMP180;3735;50.136;11.062;2023-05-29T05:41:07;98446.00;;;22.00
7389;BMP180;3735;50.136;11.062;2023-05-29T05:43:33;98441.00;;;22.60
7389;BMP180;3735;50.136;11.062;2023-05-29T05:45:59;98443.00;;;22.90
7389;BMP180;3735;50.136;11.062;2023-05-29T05:48:24;98453.00;;;24.10
7389;BMP180;3735;50.136;11.062;2023-05-29T05:50:50;98449.00;;;24.40
7389;BMP180;3735;50.136;11.062;2023-05-29T05:53:16;98455.00;;;24.40
7389;BMP180;3735;50.136;11.062;2023-05-29T05:55:43;98461.00;;;25.10
7389;BMP180;3735;50.136;11.062;2023-05-29T05:58:09;98462.00;;;25.10
7389;BMP180;3735;50.136;11.062;2023-05-29T06:00:34;98463.00;;;25.00
7389;BMP180;3735;50.136;11.062;2023-05-29T06:03:01;98469.00;;;25.30
7389;BMP180;3735;50.136;11.062;2023-05-29T06:05:29;98461.00;;;25.60
7389;BMP180;3735;50.136;11.062;2023-05-29T06:07:55;98469.00;;;26.20
7389;BMP180;3735;50.136;11.062;2023-05-29T06:10:21;98471.00;;;26.90
7389;BMP180;3735;50.136;11.062;2023-05-29T06:12:47;98461.00;;;27.30
7389;BMP180;3735;50.136;11.062;2023-05-29T06:15:13;98470.00;;;27.50
7389;BMP180;3735;50.136;11.062;2023-05-29T06:17:40;98467.00;;;27.70
7389;BMP180;3735;50.136;11.062;2023-05-29T06:20:06;98463.00;;;28.10
7389;BMP180;3735;50.136;11.062;2023-05-29T06:22:37;98471.00;;;28.60
7389;BMP180;3735;50.136;11.062;2023-05-29T06:25:03;98475.00;;;28.60
7389;BMP180;3735;50.136;11.062;2023-05-29T06:27:29;98474.00;;;28.50
7389;BMP180;3735;50.136;11.062;2023-05-29T06:29:55;98457.00;;;28.90
7389;BMP180;3735;50.136;11.062;2023-05-29T06:32:21;98476.00;;;28.80
7389;BMP180;3735;50.136;11.062;2023-05-29T06:34:47;98475.00;;;28.80
7389;BMP180;3735;50.136;11.062;2023-05-29T06:37:13;98471.00;;;28.90
7389;BMP180;3735;50.136;11.062;2023-05-29T06:39:39;98474.00;;;29.10
7389;BMP180;3735;50.136;11.062;2023-05-29T06:42:08;98487.00;;;28.90
7389;BMP180;3735;50.136;11.062;2023-05-29T06:44:34;98483.00;;;29.10
7389;BMP180;3735;50.136;11.062;2023-05-29T06:47:00;98485.00;;;29.00
7389;BMP180;3735;50.136;11.062;2023-05-29T06:49:25;98483.00;;;29.00
7389;BMP180;3735;50.136;11.062;2023-05-29T06:51:51;98485.00;;;29.30
7389;BMP180;3735;50.136;11.062;2023-05-29T06:54:17;98483.00;;;29.60
7389;BMP180;3735;50.136;11.062;2023-05-29T06:56:43;98484.00;;;29.80
7389;BMP180;3735;50.136;11.062;2023-05-29T06:59:08;98492.00;;;29.70
7389;BMP180;3735;50.136;11.062;2023-05-29T07:01:34;98485.00;;;30.10
7389;BMP180;3735;50.136;11.062;2023-05-29T07:04:01;98497.00;;;30.00
7389;BMP180;3735;50.136;11.062;2023-05-29T07:06:27;98503.00;;;30.80
7389;BMP180;3735;50.136;11.062;2023-05-29T07:08:52;98504.00;;;31.00
7389;BMP180;3735;50.136;11.062;2023-05-29T07:11:18;98502.00;;;30.40
7389;BMP180;3735;50.136;11.062;2023-05-29T07:13:44;98504.00;;;29.90
7389;BMP180;3735;50.136;11.062;2023-05-29T07:16:10;98508.00;;;30.10
7389;BMP180;3735;50.136;11.062;2023-05-29T07:18:36;98516.00;;;30.50
7389;BMP180;3735;50.136;11.062;2023-05-29T07:21:01;98517.00;;;30.40
7389;BMP180;3735;50.136;11.062;2023-05-29T07:23:27;98511.00;;;30.40
7389;BMP180;3735;50.136;11.062;2023-05-29T07:25:53;98515.00;;;30.30
7389;BMP180;3735;50.136;11.062;2023-05-29T07:28:19;98517.00;;;30.30
7389;BMP180;3735;50.136;11.062;2023-05-29T07:30:45;98513.00;;;30.10
7389;BMP180;3735;50.136;11.062;2023-05-29T07:33:10;98512.00;;;30.60
7389;BMP180;3735;50.136;11.062;2023-05-29T07:35:36;98514.00;;;30.60
7389;BMP180;3735;50.136;11.062;2023-05-29T07:38:02;98514.00;;;30.50
7389;BMP180;3735;50.136;11.062;2023-05-29T07:40:28;98527.00;;;30.70
7389;BMP180;3735;50.136;11.062;2023-05-29T07:42:53;98523.00;;;30.80
7389;BMP180;3735;50.136;11.062;2023-05-29T07:45:19;98523.00;;;30.90
7389;BMP180;3735;50.136;11.062;2023-05-29T07:47:45;98513.00;;;30.80
7389;BMP180;3735;50.136;11.062;2023-05-29T07:50:13;98521.00;;;31.20
7389;BMP180;3735;50.136;11.062;2023-05-29T07:52:39;98529.00;;;31.40
7389;BMP180;3735;50.136;11.062;2023-05-29T07:55:05;98516.00;;;31.30
7389;BMP180;3735;50.136;11.062;2023-05-29T07:57:31;98515.00;;;31.30
7389;BMP180;3735;50.136;11.062;2023-05-29T07:59:57;98522.00;;;31.40
7389;BMP180;3735;50.136;11.062;2023-05-29T08:02:23;98524.00;;;31.50
7389;BMP180;3735;50.136;11.062;2023-05-29T08:04:48;98519.00;;;31.90
7389;BMP180;3735;50.136;11.062;2023-05-29T08:07:14;98526.00;;;32.00
7389;BMP180;3735;50.136;11.062;2023-05-29T08:09:40;98537.00;;;32.10
7389;BMP180;3735;50.136;11.062;2023-05-29T08:12:06;98536.00;;;32.00
7389;BMP180;3735;50.136;11.062;2023-05-29T08:14:32;98529.00;;;32.40
7389;BMP180;3735;50.136;11.062;2023-05-29T08:16:57;98536.00;;;32.40
7389;BMP180;3735;50.136;11.062;2023-05-29T08:19:24;98531.00;;;31.80
7389;BMP180;3735;50.136;11.062;2023-05-29T08:21:50;98526.00;;;32.00
7389;BMP180;3735;50.136;11.062;2023-05-29T08:24:16;98531.00;;;32.50
7389;BMP180;3735;50.136;11.062;2023-05-29T08:26:42;98542.00;;;32.50
7389;BMP180;3735;50.136;11.062;2023-05-29T08:29:09;98538.00;;;32.80
7389;BMP180;3735;50.136;11.062;2023-05-29T08:31:35;98530.00;;;32.30
7389;BMP180;3735;50.136;11.062;2023-05-29T08:34:01;98529.00;;;32.60
7389;BMP180;3735;50.136;11.062;2023-05-29T08:36:26;98531.00;;;32.40
7389;BMP180;3735;50.136;11.062;2023-05-29T08:38:53;98544.00;;;32.90
7389;BMP180;3735;50.136;11.062;2023-05-29T08:41:35;98530.00;;;32.40
7389;BMP180;3735;50.136;11.062;2023-05-29T08:44:05;98535.00;;;33.10
7389;BMP180;3735;50.136;11.062;2023-05-29T08:46:33;98524.00;;;33.60
7389;BMP180;3735;50.136;11.062;2023-05-29T08:49:01;98536.00;;;33.70
7389;BMP180;3735;50.136;11.062;2023-05-29T08:51:32;98529.00;;;33.00
7389;BMP180;3735;50.136;11.062;2023-05-29T08:53:58;98534.00;;;33.30
7389;BMP180;3735;50.136;11.062;2023-05-29T08:56:23;98534.00;;;33.00
7389;BMP180;3735;50.136;11.062;2023-05-29T08:58:50;98524.00;;;32.80
7389;BMP180;3735;50.136;11.062;2023-05-29T09:01:17;98529.00;;;33.20
7389;BMP180;3735;50.136;11.062;2023-05-29T09:03:43;98527.00;;;33.40
7389;BMP180;3735;50.136;11.062;2023-05-29T09:06:09;98523.00;;;32.60
7389;BMP180;3735;50.136;11.062;2023-05-29T09:08:37;98525.00;;;33.10
7389;BMP180;3735;50.136;11.062;2023-05-29T09:11:04;98526.00;;;33.70
7389;BMP180;3735;50.136;11.062;2023-05-29T09:13:30;98519.00;;;33.40
7389;BMP180;3735;50.136;11.062;2023-05-29T09:16:01;98526.00;;;32.70
7389;BMP180;3735;50.136;11.062;2023-05-29T09:18:30;98518.00;;;32.80
7389;BMP180;3735;50.136;11.062;2023-05-29T09:20:58;98520.00;;;32.50
7389;BMP180;3735;50.136;11.062;2023-05-29T09:23:25;98519.00;;;32.60
7389;BMP180;3735;50.136;11.062;2023-05-29T09:25:53;98515.00;;;32.20
7389;BMP180;3735;50.136;11.062;2023-05-29T09:28:21;98513.00;;;32.20
7389;BMP180;3735;50.136;11.062;2023-05-29T09:30:49;98523.00;;;32.20
7389;BMP180;3735;50.136;11.062;2023-05-29T09:33:16;98521.00;;;32.40
7389;BMP180;3735;50.136;11.062;2023-05-29T09:35:45;98524.00;;;32.10
7389;BMP180;3735;50.136;11.062;2023-05-29T09:38:13;98521.00;;;31.90
7389;BMP180;3735;50.136;11.062;2023-05-29T09:40:40;98531.00;;;31.60
7389;BMP180;3735;50.136;11.062;2023-05-29T09:43:16;98523.00;;;31.70
7389;BMP180;3735;50.136;11.062;2023-05-29T09:45:48;98523.00;;;31.50
7389;BMP180;3735;50.136;11.062;2023-05-29T09:48:17;98531.00;;;31.50
7389;BMP180;3735;50.136;11.062;2023-05-29T09:50:44;98528.00;;;31.40
7389;BMP180;3735;50.136;11.062;2023-05-29T09:53:24;98517.00;;;32.00
7389;BMP180;3735;50.136;11.062;2023-05-29T09:55:55;98529.00;;;31.50
7389;BMP180;3735;50.136;11.062;2023-05-29T09:58:22;98524.00;;;31.80
7389;BMP180;3735;50.136;11.062;2023-05-29T10:00:50;98524.00;;;31.90
7389;BMP180;3735;50.136;11.062;2023-05-29T10:03:19;98523.00;;;32.00
7389;BMP180;3735;50.136;11.062;2023-05-29T10:05:52;98511.00;;;31.30
7389;BMP180;3735;50.136;11.062;2023-05-29T10:08:20;98520.00;;;31.80
7389;BMP180;3735;50.136;11.062;2023-05-29T10:10:54;98516.00;;;31.60
7389;BMP180;3735;50.136;11.062;2023-05-29T10:13:24;98524.00;;;31.70
7389;BMP180;3735;50.136;11.062;2023-05-29T10:15:52;98505.00;;;32.20
7389;BMP180;3735;50.136;11.062;2023-05-29T10:18:33;98519.00;;;31.80
7389;BMP180;3735;50.136;11.062;2023-05-29T10:21:01;98512.00;;;32.40
7389;BMP180;3735;50.136;11.062;2023-05-29T10:23:29;98517.00;;;32.00
7389;BMP180;3735;50.136;11.062;2023-05-29T10:26:21;98511.00;;;32.00
7389;BMP180;3735;50.136;11.062;2023-05-29T10:29:01;98507.00;;;32.20
7389;BMP180;3735;50.136;11.062;2023-05-29T10:37:20;98503.00;;;31.80
7389;BMP180;3735;50.136;11.062;2023-05-29T10:39:46;98514.00;;;31.80
7389;BMP180;3735;50.136;11.062;2023-05-29T10:42:40;98521.00;;;31.70
7389;BMP180;3735;50.136;11.062;2023-05-29T10:45:09;98508.00;;;31.50
7389;BMP180;3735;50.136;11.062;2023-05-29T10:47:35;98511.00;;;31.60
7389;BMP180;3735;50.136;11.062;2023-05-29T10:50:02;98518.00;;;31.50
7389;BMP180;3735;50.136;11.062;2023-05-29T10:52:34;98505.00;;;31.80
7389;BMP180;3735;50.136;11.062;2023-05-29T10:55:02;98515.00;;;32.00
7389;BMP180;3735;50.136;11.062;2023-05-29T10:57:30;98512.00;;;31.70
7389;BMP180;3735;50.136;11.062;2023-05-29T11:00:06;98518.00;;;31.70
7389;BMP180;3735;50.136;11.062;2023-05-29T11:02:40;98507.00;;;32.10
7389;BMP180;3735;50.136;11.062;2023-05-29T11:05:22;98505.00;;;31.90
7389;BMP180;3735;50.136;11.062;2023-05-29T11:07:56;98510.00;;;32.20
7389;BMP180;3735;50.136;11.062;2023-05-29T11:13:24;98512.00;;;32.50
7389;BMP180;3735;50.136;11.062;2023-05-29T11:16:05;98513.00;;;32.70
7389;BMP180;3735;50.136;11.062;2023-05-29T11:18:38;98509.00;;;32.80
7389;BMP180;3735;50.136;11.062;2023-05-29T11:21:15;98512.00;;;32.70
7389;BMP180;3735;50.136;11.062;2023-05-29T11:23:50;98508.00;;;33.20
7389;BMP180;3735;50.136;11.062;2023-05-29T11:26:17;98511.00;;;32.70
7389;BMP180;3735;50.136;11.062;2023-05-29T11:28:43;98498.00;;;32.90
7389;BMP180;3735;50.136;11.062;2023-05-29T11:31:09;98509.00;;;32.50
7389;BMP180;3735;50.136;11.062;2023-05-29T11:33:47;98513.00;;;32.00
7389;BMP180;3735;50.136;11.062;2023-05-29T11:36:14;98505.00;;;32.90
7389;BMP180;3735;50.136;11.062;2023-05-29T11:38:41;98502.00;;;32.40
7389;BMP180;3735;50.136;11.062;2023-05-29T11:41:09;98496.00;;;31.90
7389;BMP180;3735;50.136;11.062;2023-05-29T11:43:35;98498.00;;;32.20
7389;BMP180;3735;50.136;11.062;2023-05-29T11:46:02;98489.00;;;32.60
7389;BMP180;3735;50.136;11.062;2023-05-29T11:48:28;98491.00;;;31.70
7389;BMP180;3735;50.136;11.062;2023-05-29T11:50:53;98497.00;;;32.10
7389;BMP180;3735;50.136;11.062;2023-05-29T11:53:19;98502.00;;;31.80
7389;BMP180;3735;50.136;11.062;2023-05-29T11:55:45;98503.00;;;32.10
7389;BMP180;3735;50.136;11.062;2023-05-29T11:58:11;98485.00;;;31.90
7389;BMP180;3735;50.136;11.062;2023-05-29T12:00:38;98487.00;;;32.20
7389;BMP180;3735;50.136;11.062;2023-05-29T12:03:06;98488.00;;;32.60
7389;BMP180;3735;50.136;11.062;2023-05-29T12:05:48;98482.00;;;32.50
7389;BMP180;3735;50.136;11.062;2023-05-29T12:08:14;98490.00;;;32.80
7389;BMP180;3735;50.136;11.062;2023-05-29T12:10:48;98487.00;;;32.30
7389;BMP180;3735;50.136;11.062;2023-05-29T12:13:19;98482.00;;;31.80
7389;BMP180;3735;50.136;11.062;2023-05-29T12:15:47;98485.00;;;31.90
7389;BMP180;3735;50.136;11.062;2023-05-29T12:18:13;98477.00;;;31.50
7389;BMP180;3735;50.136;11.062;2023-05-29T12:20:39;98484.00;;;32.30
7389;BMP180;3735;50.136;11.062;2023-05-29T12:23:05;98474.00;;;32.20
7389;BMP180;3735;50.136;11.062;2023-05-29T12:25:34;98477.00;;;32.10
7389;BMP180;3735;50.136;11.062;2023-05-29T12:28:02;98483.00;;;31.80
7389;BMP180;3735;50.136;11.062;2023-05-29T12:30:28;98484.00;;;32.20
7389;BMP180;3735;50.136;11.062;2023-05-29T12:32:54;98480.00;;;32.70
7389;BMP180;3735;50.136;11.062;2023-05-29T12:35:27;98482.00;;;32.90
7389;BMP180;3735;50.136;11.062;2023-05-29T12:38:00;98482.00;;;32.40
7389;BMP180;3735;50.136;11.062;2023-05-29T12:40:31;98485.00;;;32.10
7389;BMP180;3735;50.136;11.062;2023-05-29T12:43:05;98492.00;;;32.50
7389;BMP180;3735;50.136;11.062;2023-05-29T12:45:33;98480.00;;;32.20
7389;BMP180;3735;50.136;11.062;2023-05-29T12:48:05;98481.00;;;32.10
7389;BMP180;3735;50.136;11.062;2023-05-29T12:50:41;98476.00;;;31.80
7389;BMP180;3735;50.136;11.062;2023-05-29T12:53:12;98484.00;;;32.10
7389;BMP180;3735;50.136;11.062;2023-05-29T12:55:43;98480.00;;;32.40
7389;BMP180;3735;50.136;11.062;2023-05-29T12:58:13;98478.00;;;33.10
7389;BMP180;3735;50.136;11.062;2023-05-29T13:00:41;98476.00;;;33.10
7389;BMP180;3735;50.136;11.062;2023-05-29T13:03:08;98479.00;;;32.60
7389;BMP180;3735;50.136;11.062;2023-05-29T13:05:35;98472.00;;;32.50
7389;BMP180;3735;50.136;11.062;2023-05-29T13:08:01;98477.00;;;31.60
7389;BMP180;3735;50.136;11.062;2023-05-29T13:10:28;98476.00;;;31.60
7389;BMP180;3735;50.136;11.062;2023-05-29T13:12:54;98473.00;;;31.90
7389;BMP180;3735;50.136;11.062;2023-05-29T13:15:22;98473.00;;;32.70
7389;BMP180;3735;50.136;11.062;2023-05-29T13:17:49;98470.00;;;33.00
7389;BMP180;3735;50.136;11.062;2023-05-29T13:20:16;98477.00;;;32.70
7389;BMP180;3735;50.136;11.062;2023-05-29T13:22:46;98482.00;;;33.30
7389;BMP180;3735;50.136;11.062;2023-05-29T13:25:17;98476.00;;;32.60
7389;BMP180;3735;50.136;11.062;2023-05-29T13:27:47;98474.00;;;33.00
7389;BMP180;3735;50.136;11.062;2023-05-29T13:30:14;98475.00;;;33.00
7389;BMP180;3735;50.136;11.062;2023-05-29T13:32:44;98474.00;;;32.60
7389;BMP180;3735;50.136;11.062;2023-05-29T13:35:10;98470.00;;;32.60
7389;BMP180;3735;50.136;11.062;2023-05-29T13:37:37;98462.00;;;33.00
7389;BMP180;3735;50.136;11.062;2023-05-29T13:40:07;98466.00;;;32.70
7389;BMP180;3735;50.136;11.062;2023-05-29T13:42:34;98469.00;;;32.20
7389;BMP180;3735;50.136;11.062;2023-05-29T13:45:00;98462.00;;;31.20
7389;BMP180;3735;50.136;11.062;2023-05-29T13:47:26;98461.00;;;32.10
7389;BMP180;3735;50.136;11.062;2023-05-29T13:49:57;98462.00;;;32.30
7389;BMP180;3735;50.136;11.062;2023-05-29T13:52:23;98452.00;;;33.10
7389;BMP180;3735;50.136;11.062;2023-05-29T13:54:49;98457.00;;;33.10
7389;BMP180;3735;50.136;11.062;2023-05-29T13:57:15;98461.00;;;32.80
7389;BMP180;3735;50.136;11.062;2023-05-29T13:59:41;98465.00;;;32.60
7389;BMP180;3735;50.136;11.062;2023-05-29T14:02:07;98464.00;;;31.90
7389;BMP180;3735;50.136;11.062;2023-05-29T14:04:34;98456.00;;;31.80
7389;BMP180;3735;50.136;11.062;2023-05-29T14:07:00;98457.00;;;31.40
7389;BMP180;3735;50.136;11.062;2023-05-29T14:09:26;98456.00;;;31.70
7389;BMP180;3735;50.136;11.062;2023-05-29T14:11:55;98448.00;;;31.20
7389;BMP180;3735;50.136;11.062;2023-05-29T14:14:23;98444.00;;;32.20
7389;BMP180;3735;50.136;11.062;2023-05-29T14:16:49;98450.00;;;32.10
7389;BMP180;3735;50.136;11.062;2023-05-29T14:19:16;98442.00;;;31.80
7389;BMP180;3735;50.136;11.062;2023-05-29T14:21:41;98444.00;;;31.80
7389;BMP180;3735;50.136;11.062;2023-05-29T14:24:07;98449.00;;;32.00
7389;BMP180;3735;50.136;11.062;2023-05-29T14:26:33;98447.00;;;31.80
7389;BMP180;3735;50.136;11.062;2023-05-29T14:28:59;98446.00;;;32.20
7389;BMP180;3735;50.136;11.062;2023-05-29T14:31:25;98449.00;;;31.90
7389;BMP180;3735;50.136;11.062;2023-05-29T14:33:51;98450.00;;;31.90
7389;BMP180;3735;50.136;11.062;2023-05-29T14:36:16;98449.00;;;31.30
7389;BMP180;3735;50.136;11.062;2023-05-29T14:38:42;98451.00;;;31.50